KBBD/BBD METAR and TAF weather

Enter ICAO airport designator
Station Type Date Time Source
KBBD METAR 2022/03/27 15:15 UTC NOAA

KBBD 271515Z AUTO 20018KT 10SM 23/M07 A3001 RMK AO2


Station Type Date Time Source
KBBD Decoded METAR 2022/03/27 15:15 UTC NOAA

Brady, Curtis Field Airport, TX, United States (KBBD) 31-10-45N 099-19-26W
Mar 27, 2022 - 11:15 AM EDT / 2022.03.27 1515 UTC
Wind: from the SSW (200 degrees) at 21 MPH (18 KT):0
Visibility: 10 mile(s):0
Temperature: 73 F (23 C)
Dew Point: 19 F (-7 C)
Relative Humidity: 12%
Pressure (altimeter): 30.01 in. Hg (1016 hPa)
ob: KBBD 271515Z AUTO 20018KT 10SM 23/M07 A3001 RMK AO2
cycle: 15

Station Type Date Time Source
KBBD TAF 2022/06/28 06:42 UTC NOAA

TAF KBBD 280540Z 2806/2906 VRB06KT P6SM VCSH SCT025 BKN050
FM281100 VRB05KT P6SM SCT060 BKN090
FM281800 04008KT P6SM VCSH SCT050 BKN080 PROB30 2818/2824 6SM -TSRA BKN050CB
FM290300 VRB05KT P6SM SCT150 BKN250
AMD NOT SKED

Example: see airport list